createdAt,value
2019-02-17T00:03:17.501Z,26.40
2019-02-17T00:07:21.706Z,20.17
2019-02-17T00:11:25.913Z,18.20
2019-02-17T00:15:30.114Z,24.30
2019-02-17T00:19:34.334Z,22.37
2019-02-17T00:23:38.526Z,20.90
2019-02-17T00:27:42.729Z,26.57
2019-02-17T00:31:46.930Z,24.13
2019-02-17T00:35:51.194Z,23.57
2019-02-17T00:39:55.362Z,20.83
2019-02-17T00:43:59.557Z,23.57
2019-02-17T00:48:03.683Z,23.33
2019-02-17T00:52:07.850Z,22.93
2019-02-17T00:56:12.046Z,18.97
2019-02-17T01:00:16.209Z,22.30
2019-02-17T01:04:20.414Z,18.53
2019-02-17T01:08:24.622Z,23.30
2019-02-17T01:12:28.810Z,20.67
2019-02-17T01:16:33.011Z,20.27
2019-02-17T01:20:37.198Z,17.67
2019-02-17T01:24:41.310Z,18.13
2019-02-17T01:28:45.502Z,18.50
2019-02-17T01:32:50.065Z,22.33
2019-02-17T01:36:56.352Z,18.70
2019-02-17T01:41:00.530Z,19.43
2019-02-17T01:45:05.399Z,20.20
2019-02-17T01:49:09.581Z,16.70
2019-02-17T01:53:13.783Z,18.13
2019-02-17T01:57:17.973Z,19.93
2019-02-17T02:01:22.190Z,22.57
2019-02-17T02:05:26.381Z,21.20
2019-02-17T02:09:30.489Z,24.33
2019-02-17T02:13:34.662Z,20.20
2019-02-17T02:17:38.940Z,21.30
2019-02-17T02:21:43.054Z,19.60
2019-02-17T02:25:47.250Z,19.47
2019-02-17T02:29:51.442Z,18.27
2019-02-17T02:33:55.642Z,17.80
2019-02-17T02:37:59.832Z,17.83
2019-02-17T02:42:03.989Z,18.23
2019-02-17T02:46:08.175Z,18.93
2019-02-17T02:50:12.466Z,19.43
2019-02-17T02:54:16.670Z,20.03
2019-02-17T02:58:20.850Z,17.90
2019-02-17T03:02:25.027Z,13.67
2019-02-17T03:06:43.687Z,17.60
2019-02-17T03:10:47.887Z,16.87
2019-02-17T03:14:52.067Z,18.03
2019-02-17T03:18:56.266Z,14.50
2019-02-17T03:23:00.439Z,17.30
2019-02-17T03:27:04.635Z,18.80
2019-02-17T03:31:08.823Z,17.47
2019-02-17T03:35:13.019Z,15.10
2019-02-17T03:39:17.207Z,17.93
2019-02-17T03:43:21.374Z,19.73
2019-02-17T03:47:25.559Z,17.87
2019-02-17T03:51:29.745Z,20.33
2019-02-17T03:55:33.936Z,18.00
2019-02-17T03:59:38.122Z,20.13
2019-02-17T04:03:42.302Z,21.40
2019-02-17T04:07:46.485Z,19.97
2019-02-17T04:11:50.710Z,20.77
2019-02-17T04:15:54.894Z,21.33
2019-02-17T04:19:59.106Z,20.33
2019-02-17T04:24:03.295Z,23.53
2019-02-17T04:28:07.459Z,20.13
2019-02-17T04:32:11.655Z,19.03
2019-02-17T04:36:15.859Z,20.50
2019-02-17T04:40:20.051Z,20.77
2019-02-17T04:44:24.262Z,18.13
2019-02-17T04:48:28.426Z,17.50
2019-02-17T04:52:32.549Z,18.20
2019-02-17T04:56:36.743Z,21.07
2019-02-17T05:00:41.007Z,19.60
2019-02-17T05:04:45.217Z,22.07
2019-02-17T05:08:49.387Z,21.27
2019-02-17T05:12:53.571Z,20.90
2019-02-17T05:16:57.755Z,23.13
2019-02-17T05:21:01.970Z,21.20
2019-02-17T05:25:06.175Z,23.67
2019-02-17T05:29:10.342Z,29.03
2019-02-17T05:33:14.537Z,26.27
2019-02-17T05:37:18.716Z,26.23
2019-02-17T05:41:22.905Z,25.63
2019-02-17T05:45:27.096Z,24.40
2019-02-17T05:49:31.258Z,26.17
2019-02-17T05:53:35.463Z,23.70
2019-02-17T05:57:39.651Z,22.80
2019-02-17T06:01:43.840Z,21.80
2019-02-17T06:05:48.045Z,22.63
2019-02-17T06:09:52.195Z,25.77
2019-02-17T06:13:56.418Z,20.80
2019-02-17T06:18:00.606Z,24.13
2019-02-17T06:22:04.822Z,22.40
2019-02-17T06:26:09.007Z,22.00
2019-02-17T06:30:13.178Z,23.27
2019-02-17T06:34:17.365Z,23.27
2019-02-17T06:38:21.479Z,27.63
2019-02-17T06:42:25.676Z,29.80
2019-02-17T06:46:34.172Z,25.63
2019-02-17T06:50:38.351Z,26.30
2019-02-17T06:54:44.299Z,21.57
2019-02-17T06:58:48.419Z,26.77
2019-02-17T07:02:52.531Z,27.80
2019-02-17T07:07:00.510Z,27.87
2019-02-17T07:11:04.678Z,25.90
2019-02-17T07:15:08.881Z,33.60
2019-02-17T07:19:13.102Z,31.27
2019-02-17T07:23:17.376Z,29.77
2019-02-17T07:27:21.570Z,33.27
2019-02-17T07:31:34.670Z,30.97
2019-02-17T07:35:31.575Z,31.20
2019-02-17T07:39:35.778Z,30.37
2019-02-17T07:43:39.901Z,33.27
2019-02-17T07:47:44.108Z,31.13
2019-02-17T07:51:48.295Z,36.07
2019-02-17T07:55:52.499Z,37.40
2019-02-17T07:59:56.693Z,33.20
2019-02-17T08:04:00.880Z,33.50
2019-02-17T08:08:05.152Z,35.33
2019-02-17T08:12:09.428Z,33.53
2019-02-17T08:16:13.606Z,30.10
2019-02-17T08:20:17.825Z,31.87
2019-02-17T08:24:22.035Z,35.40
2019-02-17T08:28:26.223Z,36.47
2019-02-17T08:32:30.397Z,35.27
2019-02-17T08:36:34.602Z,38.47
2019-02-17T08:40:38.794Z,33.43
2019-02-17T08:44:42.994Z,29.30
2019-02-17T08:48:47.194Z,28.97
2019-02-17T08:52:51.483Z,26.37
2019-02-17T08:56:55.818Z,24.83
2019-02-17T09:01:00.082Z,25.17
2019-02-17T09:05:04.410Z,26.90
2019-02-17T09:09:08.683Z,25.93
2019-02-17T09:13:12.850Z,24.07
2019-02-17T09:17:17.047Z,23.20
2019-02-17T09:21:21.285Z,24.50
2019-02-17T09:25:25.479Z,28.50
2019-02-17T09:29:29.682Z,24.57
2019-02-17T09:33:33.906Z,26.10
2019-02-17T09:37:38.107Z,24.30
2019-02-17T09:41:42.423Z,24.23
2019-02-17T09:45:46.618Z,28.17
2019-02-17T09:49:50.750Z,23.27
2019-02-17T09:53:54.934Z,22.97
2019-02-17T09:58:01.806Z,24.37
2019-02-17T10:02:07.083Z,22.33
2019-02-17T10:06:11.307Z,27.37
2019-02-17T10:10:15.717Z,24.93
2019-02-17T10:14:20.035Z,26.17
2019-02-17T10:18:24.258Z,23.97
2019-02-17T10:22:28.691Z,21.50
2019-02-17T10:26:32.998Z,24.63
2019-02-17T10:30:37.452Z,23.90
2019-02-17T10:34:41.778Z,22.77
2019-02-17T10:38:46.286Z,23.30
2019-02-17T10:42:50.481Z,22.87
2019-02-17T10:46:54.766Z,24.47
2019-02-17T10:50:58.990Z,22.23
2019-02-17T10:55:03.159Z,24.17
2019-02-17T10:59:07.281Z,22.77
2019-02-17T11:03:11.481Z,24.10
2019-02-17T11:07:15.677Z,28.23
2019-02-17T11:11:19.801Z,22.60
2019-02-17T11:15:24.027Z,23.00
2019-02-17T11:19:28.276Z,21.77
2019-02-17T11:23:32.647Z,21.83
2019-02-17T11:27:36.914Z,21.43
2019-02-17T11:31:41.049Z,22.17
2019-02-17T11:35:45.288Z,20.87
2019-02-17T11:39:49.478Z,22.53
2019-02-17T11:43:53.601Z,22.30
2019-02-17T11:52:21.040Z,20.83
2019-02-17T11:56:25.302Z,21.83
2019-02-17T12:00:29.485Z,21.13
2019-02-17T12:04:33.704Z,22.00
2019-02-17T12:08:37.921Z,20.67
2019-02-17T12:12:42.114Z,23.60
2019-02-17T12:16:46.318Z,20.73
2019-02-17T12:21:09.194Z,22.70
2019-02-17T12:25:21.139Z,23.80
2019-02-17T12:29:38.363Z,23.77
2019-02-17T12:33:42.109Z,21.97
2019-02-17T12:37:47.406Z,22.13
2019-02-17T12:41:51.802Z,23.60
2019-02-17T12:45:55.990Z,25.97
2019-02-17T12:50:00.240Z,26.30
2019-02-17T12:54:04.535Z,21.33
2019-02-17T12:58:08.795Z,21.80
2019-02-17T13:02:13.060Z,22.77
2019-02-17T13:06:17.290Z,20.53
2019-02-17T13:14:44.778Z,21.40
2019-02-17T13:18:49.121Z,21.80
2019-02-17T13:22:53.372Z,22.70
2019-02-17T13:26:57.574Z,18.57
2019-02-17T13:31:01.797Z,23.73
2019-02-17T13:35:06.151Z,21.93
2019-02-17T13:39:10.341Z,25.20
2019-02-17T13:43:14.542Z,22.57
2019-02-17T13:47:18.738Z,23.17
2019-02-17T13:51:22.943Z,22.83
2019-02-17T13:55:27.125Z,22.53
2019-02-17T13:59:31.439Z,22.60
2019-02-17T14:03:35.654Z,22.03
2019-02-17T14:07:39.856Z,24.30
2019-02-17T14:11:44.165Z,23.63
2019-02-17T14:15:48.355Z,23.07
2019-02-17T14:19:52.583Z,24.67
2019-02-17T14:23:56.854Z,20.70
2019-02-17T14:28:01.043Z,23.77
2019-02-17T14:32:05.238Z,23.67
2019-02-17T14:36:09.357Z,23.63
2019-02-17T14:40:13.764Z,24.73
2019-02-17T14:44:18.177Z,25.60
2019-02-17T14:48:22.439Z,21.07
2019-02-17T14:52:26.662Z,24.03
2019-02-17T14:56:30.801Z,22.20
2019-02-17T15:00:34.997Z,22.60
2019-02-17T15:04:39.624Z,23.33
2019-02-17T15:08:43.934Z,24.47
2019-02-17T15:12:48.103Z,22.47
2019-02-17T15:16:52.306Z,24.80
2019-02-17T15:20:56.591Z,26.73
2019-02-17T15:25:00.957Z,48.67
2019-02-17T15:29:05.154Z,23.03
2019-02-17T15:33:09.343Z,23.70
2019-02-17T15:37:13.553Z,25.00
2019-02-17T15:41:17.848Z,19.17
2019-02-17T15:45:22.041Z,21.20
2019-02-17T15:49:29.246Z,22.60
2019-02-17T15:53:33.355Z,20.63
2019-02-17T15:57:37.678Z,19.73
2019-02-17T16:01:41.807Z,19.63
2019-02-17T16:05:45.998Z,21.57
2019-02-17T16:09:50.198Z,19.50
2019-02-17T16:13:54.374Z,20.20
2019-02-17T16:17:58.577Z,18.13
2019-02-17T16:22:02.855Z,18.03
2019-02-17T16:26:07.047Z,20.37
2019-02-17T16:30:13.238Z,20.80
2019-02-17T16:34:17.494Z,19.52
2019-02-17T16:38:21.691Z,22.67
2019-02-17T16:42:25.891Z,19.40
2019-02-17T16:46:30.079Z,20.20
2019-02-17T16:50:34.434Z,24.93
2019-02-17T16:54:38.618Z,20.40
2019-02-17T16:58:43.579Z,20.83
2019-02-17T17:02:48.032Z,20.90
2019-02-17T17:06:52.214Z,22.57
2019-02-17T17:10:56.410Z,18.87
2019-02-17T17:15:00.594Z,20.70
2019-02-17T17:19:04.915Z,23.67
2019-02-17T17:23:09.112Z,18.57
2019-02-17T17:27:13.306Z,19.30
2019-02-17T17:31:17.507Z,18.63
2019-02-17T17:35:21.674Z,16.90
2019-02-17T17:39:25.867Z,20.87
2019-02-17T17:43:30.079Z,19.00
2019-02-17T17:47:34.282Z,21.43
2019-02-17T17:51:38.503Z,21.10
2019-02-17T17:55:42.731Z,20.27
2019-02-17T17:59:46.926Z,23.23
2019-02-17T18:03:51.135Z,21.60
2019-02-17T18:07:55.326Z,20.00
2019-02-17T18:11:59.572Z,18.70
2019-02-17T18:16:03.786Z,18.27
2019-02-17T18:20:09.189Z,21.17
2019-02-17T18:24:13.441Z,22.30
2019-02-17T18:28:17.775Z,20.70
2019-02-17T18:32:21.943Z,18.40
2019-02-17T18:36:27.903Z,21.47
2019-02-17T18:40:32.026Z,20.90
2019-02-17T18:44:36.362Z,21.90
2019-02-17T18:48:40.566Z,22.07
2019-02-17T18:52:44.765Z,19.60
2019-02-17T18:56:48.998Z,17.80
2019-02-17T19:00:53.183Z,18.13
2019-02-17T19:04:57.425Z,17.97
2019-02-17T19:09:05.166Z,19.93
2019-02-17T19:13:09.433Z,20.57
2019-02-17T19:17:13.711Z,18.27
2019-02-17T19:21:17.958Z,19.47
2019-02-17T19:25:22.215Z,18.87
2019-02-17T19:29:26.463Z,18.20
2019-02-17T19:33:30.790Z,21.13
2019-02-17T19:37:35.092Z,18.30
2019-02-17T19:41:39.283Z,20.83
2019-02-17T19:45:43.506Z,20.50
2019-02-17T19:49:48.077Z,21.50
2019-02-17T19:53:52.275Z,20.23
2019-02-17T19:57:56.574Z,24.37
2019-02-17T20:02:00.855Z,23.90
2019-02-17T20:06:05.188Z,22.70
2019-02-17T20:10:09.484Z,21.10
2019-02-17T20:14:13.764Z,24.80
2019-02-17T20:18:18.057Z,22.40
2019-02-17T20:22:22.275Z,21.17
2019-02-17T20:26:26.488Z,20.37
2019-02-17T20:30:30.688Z,20.47
2019-02-17T20:34:34.915Z,24.17
2019-02-17T20:38:39.171Z,23.70
2019-02-17T20:42:43.387Z,25.13
2019-02-17T20:46:47.581Z,22.87
2019-02-17T20:50:51.800Z,22.70
2019-02-17T20:54:56.035Z,20.47
2019-02-17T20:59:00.237Z,20.30
2019-02-17T21:03:04.553Z,23.47
2019-02-17T21:07:09.338Z,23.40
2019-02-17T21:11:38.538Z,22.53
2019-02-17T21:15:43.147Z,22.30
2019-02-17T21:19:48.246Z,20.13
2019-02-17T21:23:53.386Z,21.43
2019-02-17T21:27:58.709Z,23.03
2019-02-17T21:32:04.215Z,21.03
2019-02-17T21:36:09.173Z,21.13
2019-02-17T21:40:15.553Z,19.67
2019-02-17T21:44:20.268Z,20.80
2019-02-17T21:48:25.673Z,21.50
2019-02-17T21:52:30.863Z,20.97
2019-02-17T21:56:35.945Z,22.53
2019-02-17T22:00:41.342Z,22.50
2019-02-17T22:04:46.791Z,21.50
2019-02-17T22:08:50.994Z,24.13
2019-02-17T22:12:55.174Z,22.63
2019-02-17T22:16:59.398Z,19.87
2019-02-17T22:21:03.636Z,18.50
2019-02-17T22:25:07.982Z,18.70
2019-02-17T22:29:12.904Z,21.03
2019-02-17T22:33:17.073Z,22.40
2019-02-17T22:37:21.209Z,18.63
2019-02-17T22:41:25.410Z,18.83
2019-02-17T22:45:29.616Z,15.93
2019-02-17T22:49:33.834Z,14.97
2019-02-17T22:53:43.706Z,17.47
2019-02-17T22:57:44.188Z,20.37
2019-02-17T23:01:48.963Z,18.50
2019-02-17T23:05:53.515Z,18.27
2019-02-17T23:10:00.663Z,17.40
2019-02-17T23:14:04.864Z,18.10
2019-02-17T23:18:09.026Z,16.53
2019-02-17T23:22:14.381Z,17.33
2019-02-17T23:26:18.595Z,17.03
2019-02-17T23:30:22.873Z,15.80
2019-02-17T23:34:27.078Z,17.73
2019-02-17T23:38:31.175Z,15.07
2019-02-17T23:42:35.414Z,15.90
2019-02-17T23:46:39.606Z,17.90
2019-02-17T23:50:43.798Z,18.10
2019-02-17T23:54:47.918Z,17.10
2019-02-17T23:58:52.027Z,19.70
